重慶江北国際空港の過去48時間の天気

重慶江北国際空港 (Chongqing)

現在時刻: 5/26 09:34 CST (5/26 01:34 UTC) 以下の時間は現地時間です。

過去48時間のMETAR気象情報
時間 風向 風速(m/s) 視程 気温(℃) 湿度(%) 気圧(hPa) 天気現象
26 09:00 北東 4 10km以上 19 100 1009
26 08:00 北北東 4 10km以上 20 100 1008 弱い雨
26 07:00 北北東 4 8000m 19 100 1008 弱い雨
26 06:00 北北東 5 8000m 19 100 1008 弱い雨
26 05:00 北東 4 8000m 20 100 1007 弱いしゅう雨
26 04:00 北東 3 10km以上 20 100 1007 弱いしゅう雨
26 03:00 北東 4 10km以上 21 100 1007 弱いしゅう雨
26 02:00 3 10km以上 21 100 1007 弱いしゅう雨
26 01:00 4 10km以上 21 100 1008 弱いしゅう雨
26 00:00 4 10km以上 21 100 1008 弱いしゅう雨
25 23:00 北北東 5 10km以上 21 100 1008 弱いしゅう雨
25 22:00 4 10km以上 21 100 1008 弱い雨
25 21:00 6 6000m 21 100 1007 弱い雨
25 20:00 北北東 6 2700m 21 100 1006 弱い雨 もや
25 19:00 4 2000m 22 100 1006 弱い雨 もや
25 18:00 北北東 4 2000m 23 100 1005 弱い雨 もや
25 17:00 北北西 3 2000m 23 100 1005 弱い雨 もや
25 16:00 西北西 4 3000m 23 100 1005 弱い雨 もや
25 15:00 西北西 4 5000m 25 78 1005 もや
25 14:00 北西 4 7000m 26 74 1005
25 13:00 西北西 2 7000m 27 70 1006
25 12:00 東北東 2 8000m 27 70 1007
25 11:00 2 9000m 26 74 1007
25 10:00 北東 2 8000m 24 78 1008
25 09:00 不定 1 8000m 24 78 1008
25 08:00 北北東 2 9000m 23 83 1008
25 07:00 不定 1 8000m 23 83 1008
25 06:00 北北東 2 10km以上 23 78 1008
25 05:00 北北東 2 10km以上 23 78 1008
25 04:00 北北東 2 10km以上 23 78 1008
25 03:00 北北東 3 10km以上 24 74 1008
25 02:00 4 10km以上 24 74 1008
25 01:00 4 10km以上 24 78 1009
25 00:00 5 10km以上 24 78 1009
24 23:00 4 10km以上 25 74 1009
24 22:00 5 10km以上 25 74 1010
24 21:00 4 10km以上 26 70 1009
24 20:00 北東 3 10km以上 27 66 1009
24 19:00 西北西 2 10km以上 27 66 1008
24 18:00 北西 3 10km以上 27 66 1008
24 17:00 西北西 4 10km以上 28 66 1008
24 16:00 西北西 4 10km以上 28 62 1009
24 15:00 西 3 10km以上 29 58 1009
24 14:00 不定 1 10km以上 29 55 1009
24 13:00 南東 2 10km以上 28 62 1010
24 12:00 不定 1 10km以上 28 58 1010
24 11:00 不定 1 10km以上 27 62 1011
24 10:00 2 10km以上 25 69 1011
ZUCK 260100Z 04004MPS 9999 FEW005 SCT010 OVC050 19/19 Q1009 NOSIG
ZUCK 260000Z 03004MPS 9999 -RA FEW011 SCT025 20/20 Q1008 NOSIG
ZUCK 252300Z 03004MPS 8000 -RA FEW010 SCT025 19/19 Q1008 NOSIG
ZUCK 252200Z 03005MPS 8000 -RA FEW005 SCT013 OVC043 19/19 Q1008 NOSIG
ZUCK 252100Z 05004MPS 8000 -SHRA FEW006 SCT013 OVC040 20/20 Q1007 NOSIG
ZUCK 252000Z 04003MPS 9999 -SHRA FEW006 SCT013 OVC040 20/20 Q1007 NOSIG
ZUCK 251900Z 04004MPS 9999 -SHRA FEW006 SCT013 OVC040 21/21 Q1007 NOSIG
ZUCK 251800Z 36003MPS 9999 -SHRA FEW006 SCT013 OVC040 21/21 Q1007 NOSIG
ZUCK 251700Z 01004MPS 9999 -SHRA FEW006 SCT014 OVC040 21/21 Q1008 NOSIG
ZUCK 251600Z 01004MPS 9999 -SHRA FEW006 SCT023 21/21 Q1008 NOSIG
ZUCK 251500Z 02005MPS 9999 -SHRA FEW004 SCT026 21/21 Q1008 NOSIG
ZUCK 251400Z 01004MPS 9999 -RA FEW004 SCT030 21/21 Q1008 NOSIG
ZUCK 251300Z 01006MPS 6000 -RA FEW004 SCT010 OVC050 21/21 Q1007 NOSIG
ZUCK 251200Z 03006MPS 2700 -RA BR FEW005 SCT010 OVC046 21/21 Q1006 BECMG TL1250 3000
ZUCK 251100Z 01004MPS 2000 -RA BR FEW003 SCT013 22/22 Q1006 NOSIG
ZUCK 251000Z 03004MPS 2000 -RA BR FEW003 SCT013 23/23 Q1005 BECMG TL1140 3000
ZUCK 250900Z 33003MPS 2000 -RA BR FEW003 SCT020 23/23 Q1005 NOSIG
ZUCK 250800Z 30004MPS 280V340 3000 -RA BR SCT023 23/23 Q1005 NOSIG
ZUCK 250700Z 29004MPS 5000 BR SCT030 25/21 Q1005 NOSIG
ZUCK 250600Z 31004MPS 7000 NSC 26/21 Q1005 NOSIG
ZUCK 250500Z 30002MPS 220V360 7000 FEW025 27/21 Q1006 NOSIG
ZUCK 250400Z 06002MPS 020V130 8000 FEW023 27/21 Q1007 NOSIG
ZUCK 250300Z 36002MPS 260V060 9000 NSC 26/21 Q1007 NOSIG
ZUCK 250200Z 04002MPS 010V070 8000 OVC046 24/20 Q1008 NOSIG
ZUCK 250100Z VRB01MPS 8000 BKN050 24/20 Q1008 NOSIG
ZUCK 250000Z 03002MPS 9000 OVC050 23/20 Q1008 NOSIG
ZUCK 242300Z VRB01MPS 8000 OVC050 23/20 Q1008 NOSIG
ZUCK 242200Z 02002MPS 9999 OVC050 23/19 Q1008 NOSIG
ZUCK 242100Z 02002MPS 9999 OVC050 23/19 Q1008 NOSIG
ZUCK 242000Z 03002MPS CAVOK 23/19 Q1008 NOSIG
ZUCK 241900Z 03003MPS CAVOK 24/19 Q1008 NOSIG
ZUCK 241800Z 01004MPS CAVOK 24/19 Q1008 NOSIG
ZUCK 241700Z 01004MPS CAVOK 24/20 Q1009 NOSIG
ZUCK 241600Z 01005MPS CAVOK 24/20 Q1009 NOSIG
ZUCK 241500Z 01004MPS 9999 SCT046 25/20 Q1009 NOSIG
ZUCK 241400Z 01005MPS 9999 SCT050 25/20 Q1010 BECMG TL1530 08004MPS
ZUCK 241300Z 01004MPS 9999 FEW050 26/20 Q1009 NOSIG
ZUCK 241200Z 05003MPS 9999 SCT050 27/20 Q1009 NOSIG
ZUCK 241100Z 30002MPS 270V330 9999 SCT040 27/20 Q1008 NOSIG
ZUCK 241000Z 31003MPS 280V010 9999 FEW040 27/20 Q1008 NOSIG
ZUCK 240900Z 30004MPS 270V350 9999 FEW040 28/21 Q1008 NOSIG
ZUCK 240800Z 29004MPS 9999 SCT040 28/20 Q1009 NOSIG
ZUCK 240700Z 27003MPS 240V320 9999 SCT040 29/20 Q1009 NOSIG
ZUCK 240600Z VRB01MPS CAVOK 29/19 Q1009 NOSIG
ZUCK 240500Z 14002MPS 100V210 CAVOK 28/20 Q1010 NOSIG
ZUCK 240400Z VRB01MPS CAVOK 28/19 Q1010 NOSIG
ZUCK 240300Z VRB01MPS CAVOK 27/19 Q1011 NOSIG
ZUCK 240200Z 18002MPS CAVOK 25/19 Q1011 NOSIG